Terminal Aerodrome Forecast
Issued by NWS

Home | Current Version | Previous Version | Text Only | Print | Product List | Glossary Off
Versions: 1 2 3 4 5 6 7 8 9 10 11 12 13 14 15 16 17

000
FTUS43 KMPX 141945 AAA
TAFAXN
TAF AMD
KAXN 141945Z 1420/1518 04005KT P6SM FEW025 BKN040
     FM150100 08003KT P6SM SKC
      TEMPO 1508/1512 1 1/2SM BR BKN004
     FM151400 12006KT P6SM BKN250=

USA.gov is the U.S. government's official web portal to all federal, state and local government web resources and services.